sensor_id;sensor_type;location;lat;lon;timestamp;P1;durP1;ratioP1;P2;durP2;ratioP2
52718;SDS011;38616;42.140;24.760;2022-07-23T00:01:28;6.95;;;3.25;;
52718;SDS011;38616;42.140;24.760;2022-07-23T00:03:54;7.22;;;3.58;;
52718;SDS011;38616;42.140;24.760;2022-07-23T00:06:20;8.37;;;3.93;;
52718;SDS011;38616;42.140;24.760;2022-07-23T00:08:46;5.00;;;3.72;;
52718;SDS011;38616;42.140;24.760;2022-07-23T00:11:12;7.57;;;3.30;;
52718;SDS011;38616;42.140;24.760;2022-07-23T00:13:37;8.32;;;3.90;;
52718;SDS011;38616;42.140;24.760;2022-07-23T00:16:03;7.00;;;3.40;;
52718;SDS011;38616;42.140;24.760;2022-07-23T00:18:29;8.02;;;4.00;;
52718;SDS011;38616;42.140;24.760;2022-07-23T00:20:54;6.57;;;3.60;;
52718;SDS011;38616;42.140;24.760;2022-07-23T00:23:19;10.48;;;3.50;;
52718;SDS011;38616;42.140;24.760;2022-07-23T00:25:45;10.45;;;2.97;;
52718;SDS011;38616;42.140;24.760;2022-07-23T00:28:11;8.48;;;3.10;;
52718;SDS011;38616;42.140;24.760;2022-07-23T00:30:37;14.73;;;3.80;;
52718;SDS011;38616;42.140;24.760;2022-07-23T00:33:03;10.73;;;3.90;;
52718;SDS011;38616;42.140;24.760;2022-07-23T00:35:32;11.65;;;3.50;;
52718;SDS011;38616;42.140;24.760;2022-07-23T00:37:59;12.18;;;4.00;;
52718;SDS011;38616;42.140;24.760;2022-07-23T00:40:26;11.18;;;4.85;;
52718;SDS011;38616;42.140;24.760;2022-07-23T00:42:52;10.20;;;5.85;;
52718;SDS011;38616;42.140;24.760;2022-07-23T00:45:18;22.73;;;10.43;;
52718;SDS011;38616;42.140;24.760;2022-07-23T00:47:44;21.00;;;9.95;;
52718;SDS011;38616;42.140;24.760;2022-07-23T00:50:10;18.42;;;10.45;;
52718;SDS011;38616;42.140;24.760;2022-07-23T00:52:36;18.30;;;11.00;;
52718;SDS011;38616;42.140;24.760;2022-07-23T00:55:07;22.65;;;10.85;;
52718;SDS011;38616;42.140;24.760;2022-07-23T00:57:37;15.45;;;7.95;;
52718;SDS011;38616;42.140;24.760;2022-07-23T01:00:04;12.07;;;7.05;;
52718;SDS011;38616;42.140;24.760;2022-07-23T01:02:31;14.27;;;7.07;;
52718;SDS011;38616;42.140;24.760;2022-07-23T01:04:57;13.32;;;7.45;;
52718;SDS011;38616;42.140;24.760;2022-07-23T01:07:22;17.73;;;6.80;;
52718;SDS011;38616;42.140;24.760;2022-07-23T01:09:48;12.32;;;6.32;;
52718;SDS011;38616;42.140;24.760;2022-07-23T01:12:15;13.07;;;6.07;;
52718;SDS011;38616;42.140;24.760;2022-07-23T01:14:41;13.10;;;5.85;;
52718;SDS011;38616;42.140;24.760;2022-07-23T01:17:06;10.90;;;5.68;;
52718;SDS011;38616;42.140;24.760;2022-07-23T01:19:32;15.02;;;7.72;;
52718;SDS011;38616;42.140;24.760;2022-07-23T01:21:58;18.92;;;7.40;;
52718;SDS011;38616;42.140;24.760;2022-07-23T01:24:25;14.57;;;6.90;;
52718;SDS011;38616;42.140;24.760;2022-07-23T01:26:51;15.00;;;6.95;;
52718;SDS011;38616;42.140;24.760;2022-07-23T01:29:16;13.38;;;6.35;;
52718;SDS011;38616;42.140;24.760;2022-07-23T01:31:43;12.32;;;6.38;;
52718;SDS011;38616;42.140;24.760;2022-07-23T01:34:09;13.32;;;6.57;;
52718;SDS011;38616;42.140;24.760;2022-07-23T01:36:35;14.18;;;7.70;;
52718;SDS011;38616;42.140;24.760;2022-07-23T01:39:02;11.95;;;6.90;;
52718;SDS011;38616;42.140;24.760;2022-07-23T01:41:28;17.10;;;7.03;;
52718;SDS011;38616;42.140;24.760;2022-07-23T01:43:54;14.93;;;6.82;;
52718;SDS011;38616;42.140;24.760;2022-07-23T01:46:19;15.25;;;7.07;;
52718;SDS011;38616;42.140;24.760;2022-07-23T01:48:45;14.20;;;6.53;;
52718;SDS011;38616;42.140;24.760;2022-07-23T01:51:10;14.38;;;7.82;;
52718;SDS011;38616;42.140;24.760;2022-07-23T01:53:36;19.55;;;8.65;;
52718;SDS011;38616;42.140;24.760;2022-07-23T01:56:01;16.63;;;8.82;;
52718;SDS011;38616;42.140;24.760;2022-07-23T01:58:27;18.50;;;8.98;;
52718;SDS011;38616;42.140;24.760;2022-07-23T02:00:53;18.40;;;9.57;;
52718;SDS011;38616;42.140;24.760;2022-07-23T02:03:19;22.08;;;10.43;;
52718;SDS011;38616;42.140;24.760;2022-07-23T02:05:45;23.98;;;10.45;;
52718;SDS011;38616;42.140;24.760;2022-07-23T02:08:10;20.35;;;9.85;;
52718;SDS011;38616;42.140;24.760;2022-07-23T02:10:36;19.15;;;9.43;;
52718;SDS011;38616;42.140;24.760;2022-07-23T02:13:01;17.63;;;9.43;;
52718;SDS011;38616;42.140;24.760;2022-07-23T02:15:27;20.65;;;10.20;;
52718;SDS011;38616;42.140;24.760;2022-07-23T02:17:53;19.70;;;10.90;;
52718;SDS011;38616;42.140;24.760;2022-07-23T02:20:19;20.67;;;10.32;;
52718;SDS011;38616;42.140;24.760;2022-07-23T02:22:44;21.55;;;10.45;;
52718;SDS011;38616;42.140;24.760;2022-07-23T02:25:10;20.80;;;10.07;;
52718;SDS011;38616;42.140;24.760;2022-07-23T02:27:35;25.20;;;10.35;;
52718;SDS011;38616;42.140;24.760;2022-07-23T02:30:02;18.55;;;10.10;;
52718;SDS011;38616;42.140;24.760;2022-07-23T02:32:28;21.55;;;9.70;;
52718;SDS011;38616;42.140;24.760;2022-07-23T02:34:54;20.38;;;10.80;;
52718;SDS011;38616;42.140;24.760;2022-07-23T02:37:19;27.25;;;9.90;;
52718;SDS011;38616;42.140;24.760;2022-07-23T02:39:44;20.98;;;9.57;;
52718;SDS011;38616;42.140;24.760;2022-07-23T02:42:10;21.83;;;9.75;;
52718;SDS011;38616;42.140;24.760;2022-07-23T02:44:35;19.48;;;9.50;;
52718;SDS011;38616;42.140;24.760;2022-07-23T02:47:01;22.48;;;10.05;;
52718;SDS011;38616;42.140;24.760;2022-07-23T02:49:27;19.40;;;9.25;;
52718;SDS011;38616;42.140;24.760;2022-07-23T02:51:52;18.65;;;8.45;;
52718;SDS011;38616;42.140;24.760;2022-07-23T02:54:18;22.15;;;9.05;;
52718;SDS011;38616;42.140;24.760;2022-07-23T02:56:44;16.75;;;7.72;;
52718;SDS011;38616;42.140;24.760;2022-07-23T02:59:09;18.20;;;8.63;;
52718;SDS011;38616;42.140;24.760;2022-07-23T03:01:35;17.50;;;8.23;;
52718;SDS011;38616;42.140;24.760;2022-07-23T03:04:01;16.63;;;7.35;;
52718;SDS011;38616;42.140;24.760;2022-07-23T03:06:26;11.68;;;7.13;;
52718;SDS011;38616;42.140;24.760;2022-07-23T03:08:52;13.95;;;7.13;;
52718;SDS011;38616;42.140;24.760;2022-07-23T03:11:17;12.68;;;7.47;;
52718;SDS011;38616;42.140;24.760;2022-07-23T03:13:43;14.80;;;7.30;;
52718;SDS011;38616;42.140;24.760;2022-07-23T03:16:08;14.60;;;7.35;;
52718;SDS011;38616;42.140;24.760;2022-07-23T03:18:34;16.63;;;6.78;;
52718;SDS011;38616;42.140;24.760;2022-07-23T03:20:59;17.65;;;6.97;;
52718;SDS011;38616;42.140;24.760;2022-07-23T03:23:25;10.65;;;6.60;;
52718;SDS011;38616;42.140;24.760;2022-07-23T03:25:51;11.60;;;6.53;;
52718;SDS011;38616;42.140;24.760;2022-07-23T03:28:16;16.23;;;7.13;;
52718;SDS011;38616;42.140;24.760;2022-07-23T03:30:43;15.82;;;6.97;;
52718;SDS011;38616;42.140;24.760;2022-07-23T03:33:11;15.15;;;6.63;;
52718;SDS011;38616;42.140;24.760;2022-07-23T03:35:41;13.00;;;6.20;;
52718;SDS011;38616;42.140;24.760;2022-07-23T03:38:07;12.40;;;6.07;;
52718;SDS011;38616;42.140;24.760;2022-07-23T03:40:32;10.45;;;5.43;;
52718;SDS011;38616;42.140;24.760;2022-07-23T03:42:58;16.20;;;6.10;;
52718;SDS011;38616;42.140;24.760;2022-07-23T03:45:23;13.70;;;6.18;;
52718;SDS011;38616;42.140;24.760;2022-07-23T03:47:48;11.90;;;6.40;;
52718;SDS011;38616;42.140;24.760;2022-07-23T03:50:14;13.95;;;6.55;;
52718;SDS011;38616;42.140;24.760;2022-07-23T03:52:39;18.67;;;6.03;;
52718;SDS011;38616;42.140;24.760;2022-07-23T03:55:05;14.23;;;6.47;;
52718;SDS011;38616;42.140;24.760;2022-07-23T03:57:31;15.52;;;5.32;;
52718;SDS011;38616;42.140;24.760;2022-07-23T03:59:56;13.38;;;6.50;;
52718;SDS011;38616;42.140;24.760;2022-07-23T04:02:22;9.15;;;5.88;;
52718;SDS011;38616;42.140;24.760;2022-07-23T04:04:47;10.38;;;5.88;;
52718;SDS011;38616;42.140;24.760;2022-07-23T04:07:13;11.73;;;5.75;;
52718;SDS011;38616;42.140;24.760;2022-07-23T04:09:39;12.63;;;5.05;;
52718;SDS011;38616;42.140;24.760;2022-07-23T04:12:06;12.65;;;6.28;;
52718;SDS011;38616;42.140;24.760;2022-07-23T04:14:32;19.08;;;6.35;;
52718;SDS011;38616;42.140;24.760;2022-07-23T04:17:00;12.55;;;5.85;;
52718;SDS011;38616;42.140;24.760;2022-07-23T04:19:25;11.43;;;5.68;;
52718;SDS011;38616;42.140;24.760;2022-07-23T04:21:51;11.25;;;6.03;;
52718;SDS011;38616;42.140;24.760;2022-07-23T04:24:17;14.68;;;6.72;;
52718;SDS011;38616;42.140;24.760;2022-07-23T04:26:43;14.25;;;6.38;;
52718;SDS011;38616;42.140;24.760;2022-07-23T04:29:09;11.77;;;6.38;;
52718;SDS011;38616;42.140;24.760;2022-07-23T04:31:34;13.95;;;5.65;;
52718;SDS011;38616;42.140;24.760;2022-07-23T04:34:00;15.90;;;7.00;;
52718;SDS011;38616;42.140;24.760;2022-07-23T04:36:25;18.25;;;7.97;;
52718;SDS011;38616;42.140;24.760;2022-07-23T04:38:51;19.98;;;8.35;;
52718;SDS011;38616;42.140;24.760;2022-07-23T04:41:16;17.60;;;8.55;;
52718;SDS011;38616;42.140;24.760;2022-07-23T04:43:41;18.08;;;8.20;;
52718;SDS011;38616;42.140;24.760;2022-07-23T04:46:07;22.30;;;8.60;;
52718;SDS011;38616;42.140;24.760;2022-07-23T04:48:32;15.98;;;8.35;;
52718;SDS011;38616;42.140;24.760;2022-07-23T04:50:58;19.67;;;7.93;;
52718;SDS011;38616;42.140;24.760;2022-07-23T04:53:23;18.58;;;7.72;;
52718;SDS011;38616;42.140;24.760;2022-07-23T04:55:49;19.85;;;9.70;;
52718;SDS011;38616;42.140;24.760;2022-07-23T04:58:14;16.60;;;8.80;;
52718;SDS011;38616;42.140;24.760;2022-07-23T05:00:40;23.05;;;9.60;;
52718;SDS011;38616;42.140;24.760;2022-07-23T05:03:05;19.23;;;9.90;;
52718;SDS011;38616;42.140;24.760;2022-07-23T05:05:31;21.80;;;11.65;;
52718;SDS011;38616;42.140;24.760;2022-07-23T05:07:56;25.33;;;11.18;;
52718;SDS011;38616;42.140;24.760;2022-07-23T05:10:22;20.27;;;9.38;;
52718;SDS011;38616;42.140;24.760;2022-07-23T05:12:47;19.48;;;8.88;;
52718;SDS011;38616;42.140;24.760;2022-07-23T05:15:13;17.40;;;9.02;;
52718;SDS011;38616;42.140;24.760;2022-07-23T05:17:38;22.83;;;10.70;;
52718;SDS011;38616;42.140;24.760;2022-07-23T05:20:04;18.77;;;8.43;;
52718;SDS011;38616;42.140;24.760;2022-07-23T05:22:30;17.48;;;8.35;;
52718;SDS011;38616;42.140;24.760;2022-07-23T05:24:55;21.35;;;10.55;;
52718;SDS011;38616;42.140;24.760;2022-07-23T05:27:20;22.17;;;11.45;;
52718;SDS011;38616;42.140;24.760;2022-07-23T05:29:46;19.15;;;10.57;;
52718;SDS011;38616;42.140;24.760;2022-07-23T05:32:11;18.77;;;8.55;;
52718;SDS011;38616;42.140;24.760;2022-07-23T05:34:37;16.70;;;9.50;;
52718;SDS011;38616;42.140;24.760;2022-07-23T05:37:02;20.23;;;9.18;;
52718;SDS011;38616;42.140;24.760;2022-07-23T05:39:27;16.17;;;8.13;;
52718;SDS011;38616;42.140;24.760;2022-07-23T05:41:53;17.83;;;8.13;;
52718;SDS011;38616;42.140;24.760;2022-07-23T05:44:18;15.80;;;7.32;;
52718;SDS011;38616;42.140;24.760;2022-07-23T05:46:45;14.30;;;7.57;;
52718;SDS011;38616;42.140;24.760;2022-07-23T05:49:11;16.00;;;7.38;;
52718;SDS011;38616;42.140;24.760;2022-07-23T05:51:36;20.98;;;8.40;;
52718;SDS011;38616;42.140;24.760;2022-07-23T05:54:02;17.50;;;7.40;;
52718;SDS011;38616;42.140;24.760;2022-07-23T05:56:27;18.40;;;8.63;;
52718;SDS011;38616;42.140;24.760;2022-07-23T05:58:52;14.95;;;7.40;;
52718;SDS011;38616;42.140;24.760;2022-07-23T06:01:18;19.17;;;8.88;;
52718;SDS011;38616;42.140;24.760;2022-07-23T06:03:43;16.08;;;7.82;;
52718;SDS011;38616;42.140;24.760;2022-07-23T06:06:09;13.98;;;7.35;;
52718;SDS011;38616;42.140;24.760;2022-07-23T06:08:35;19.85;;;8.38;;
52718;SDS011;38616;42.140;24.760;2022-07-23T06:11:00;20.65;;;7.63;;
52718;SDS011;38616;42.140;24.760;2022-07-23T06:13:26;18.00;;;8.77;;
52718;SDS011;38616;42.140;24.760;2022-07-23T06:15:51;17.42;;;7.25;;
52718;SDS011;38616;42.140;24.760;2022-07-23T06:18:17;16.27;;;8.40;;
52718;SDS011;38616;42.140;24.760;2022-07-23T06:20:42;17.35;;;7.95;;
52718;SDS011;38616;42.140;24.760;2022-07-23T06:23:08;14.23;;;8.35;;
52718;SDS011;38616;42.140;24.760;2022-07-23T06:25:33;22.52;;;13.18;;
52718;SDS011;38616;42.140;24.760;2022-07-23T06:27:58;21.15;;;8.20;;
52718;SDS011;38616;42.140;24.760;2022-07-23T06:30:25;20.60;;;7.55;;
52718;SDS011;38616;42.140;24.760;2022-07-23T06:32:50;14.85;;;7.32;;
52718;SDS011;38616;42.140;24.760;2022-07-23T06:35:16;16.50;;;7.70;;
52718;SDS011;38616;42.140;24.760;2022-07-23T06:37:42;17.10;;;6.88;;
52718;SDS011;38616;42.140;24.760;2022-07-23T06:40:07;15.98;;;6.53;;
52718;SDS011;38616;42.140;24.760;2022-07-23T06:42:33;15.50;;;6.40;;
52718;SDS011;38616;42.140;24.760;2022-07-23T06:45:01;18.45;;;6.53;;
52718;SDS011;38616;42.140;24.760;2022-07-23T06:47:28;14.57;;;6.03;;
52718;SDS011;38616;42.140;24.760;2022-07-23T06:49:57;15.70;;;5.97;;
52718;SDS011;38616;42.140;24.760;2022-07-23T06:52:22;18.08;;;5.45;;
52718;SDS011;38616;42.140;24.760;2022-07-23T06:54:48;15.43;;;5.55;;
52718;SDS011;38616;42.140;24.760;2022-07-23T06:57:14;11.68;;;5.20;;
52718;SDS011;38616;42.140;24.760;2022-07-23T06:59:39;15.02;;;5.20;;
52718;SDS011;38616;42.140;24.760;2022-07-23T07:02:05;11.50;;;5.75;;
52718;SDS011;38616;42.140;24.760;2022-07-23T07:04:32;12.60;;;6.07;;
52718;SDS011;38616;42.140;24.760;2022-07-23T07:06:57;11.60;;;4.90;;
52718;SDS011;38616;42.140;24.760;2022-07-23T07:09:23;7.43;;;4.38;;
52718;SDS011;38616;42.140;24.760;2022-07-23T07:11:48;12.35;;;4.40;;
52718;SDS011;38616;42.140;24.760;2022-07-23T07:14:14;13.00;;;4.60;;
52718;SDS011;38616;42.140;24.760;2022-07-23T07:16:39;8.55;;;4.72;;
52718;SDS011;38616;42.140;24.760;2022-07-23T07:19:05;9.95;;;4.95;;
52718;SDS011;38616;42.140;24.760;2022-07-23T07:21:30;13.25;;;4.57;;
52718;SDS011;38616;42.140;24.760;2022-07-23T07:23:55;12.80;;;4.75;;
52718;SDS011;38616;42.140;24.760;2022-07-23T07:26:21;9.50;;;4.75;;
52718;SDS011;38616;42.140;24.760;2022-07-23T07:28:46;11.93;;;4.32;;
52718;SDS011;38616;42.140;24.760;2022-07-23T07:31:12;11.05;;;4.47;;
52718;SDS011;38616;42.140;24.760;2022-07-23T07:33:37;8.60;;;4.38;;
52718;SDS011;38616;42.140;24.760;2022-07-23T07:36:03;14.95;;;4.82;;
52718;SDS011;38616;42.140;24.760;2022-07-23T07:38:29;12.15;;;6.57;;
52718;SDS011;38616;42.140;24.760;2022-07-23T07:40:54;7.78;;;4.90;;
52718;SDS011;38616;42.140;24.760;2022-07-23T07:43:20;10.43;;;4.35;;
52718;SDS011;38616;42.140;24.760;2022-07-23T07:45:45;9.13;;;4.05;;
52718;SDS011;38616;42.140;24.760;2022-07-23T07:48:10;9.40;;;4.28;;
52718;SDS011;38616;42.140;24.760;2022-07-23T07:50:36;10.48;;;4.80;;
52718;SDS011;38616;42.140;24.760;2022-07-23T07:53:01;12.57;;;4.18;;
52718;SDS011;38616;42.140;24.760;2022-07-23T07:55:27;7.18;;;4.07;;
52718;SDS011;38616;42.140;24.760;2022-07-23T07:57:53;9.23;;;4.60;;
52718;SDS011;38616;42.140;24.760;2022-07-23T08:00:19;10.07;;;4.50;;
52718;SDS011;38616;42.140;24.760;2022-07-23T08:05:14;6.80;;;4.10;;
52718;SDS011;38616;42.140;24.760;2022-07-23T08:07:40;6.75;;;4.47;;
52718;SDS011;38616;42.140;24.760;2022-07-23T08:10:06;7.85;;;4.07;;
52718;SDS011;38616;42.140;24.760;2022-07-23T08:12:40;9.65;;;4.13;;
52718;SDS011;38616;42.140;24.760;2022-07-23T08:15:07;14.10;;;4.03;;
52718;SDS011;38616;42.140;24.760;2022-07-23T08:17:33;9.73;;;4.05;;
52718;SDS011;38616;42.140;24.760;2022-07-23T08:19:58;10.05;;;4.53;;
52718;SDS011;38616;42.140;24.760;2022-07-23T08:22:24;6.05;;;4.10;;
52718;SDS011;38616;42.140;24.760;2022-07-23T08:24:49;13.23;;;4.00;;
52718;SDS011;38616;42.140;24.760;2022-07-23T08:27:15;8.98;;;3.88;;
52718;SDS011;38616;42.140;24.760;2022-07-23T08:29:40;8.95;;;4.20;;
52718;SDS011;38616;42.140;24.760;2022-07-23T08:32:05;10.43;;;4.13;;
52718;SDS011;38616;42.140;24.760;2022-07-23T08:34:31;13.88;;;4.55;;
52718;SDS011;38616;42.140;24.760;2022-07-23T08:36:56;13.63;;;4.05;;
52718;SDS011;38616;42.140;24.760;2022-07-23T08:39:21;9.48;;;4.80;;
52718;SDS011;38616;42.140;24.760;2022-07-23T08:41:47;7.70;;;3.97;;
52718;SDS011;38616;42.140;24.760;2022-07-23T08:44:13;12.68;;;4.75;;
52718;SDS011;38616;42.140;24.760;2022-07-23T08:46:41;12.95;;;4.32;;
52718;SDS011;38616;42.140;24.760;2022-07-23T08:49:08;9.73;;;4.18;;
52718;SDS011;38616;42.140;24.760;2022-07-23T08:51:33;8.10;;;4.30;;
52718;SDS011;38616;42.140;24.760;2022-07-23T08:53:59;9.40;;;4.53;;
52718;SDS011;38616;42.140;24.760;2022-07-23T08:56:25;9.90;;;4.20;;
52718;SDS011;38616;42.140;24.760;2022-07-23T08:58:53;9.02;;;3.90;;
52718;SDS011;38616;42.140;24.760;2022-07-23T09:01:19;7.07;;;4.63;;
52718;SDS011;38616;42.140;24.760;2022-07-23T09:03:44;10.25;;;4.60;;
52718;SDS011;38616;42.140;24.760;2022-07-23T09:06:10;13.27;;;3.92;;
52718;SDS011;38616;42.140;24.760;2022-07-23T09:08:36;5.35;;;4.13;;
52718;SDS011;38616;42.140;24.760;2022-07-23T09:11:04;8.35;;;4.80;;
52718;SDS011;38616;42.140;24.760;2022-07-23T09:13:49;9.82;;;4.32;;
52718;SDS011;38616;42.140;24.760;2022-07-23T09:16:24;7.85;;;4.03;;
52718;SDS011;38616;42.140;24.760;2022-07-23T09:18:58;10.07;;;4.63;;
52718;SDS011;38616;42.140;24.760;2022-07-23T09:21:26;13.50;;;4.53;;
52718;SDS011;38616;42.140;24.760;2022-07-23T09:23:55;15.50;;;4.50;;
52718;SDS011;38616;42.140;24.760;2022-07-23T09:28:49;12.30;;;4.43;;
52718;SDS011;38616;42.140;24.760;2022-07-23T09:31:16;8.27;;;3.90;;
52718;SDS011;38616;42.140;24.760;2022-07-23T09:33:41;8.77;;;3.95;;
52718;SDS011;38616;42.140;24.760;2022-07-23T09:36:07;11.10;;;3.88;;
52718;SDS011;38616;42.140;24.760;2022-07-23T09:38:34;11.95;;;4.32;;
52718;SDS011;38616;42.140;24.760;2022-07-23T09:41:07;13.77;;;4.93;;
52718;SDS011;38616;42.140;24.760;2022-07-23T09:43:33;10.93;;;4.60;;
52718;SDS011;38616;42.140;24.760;2022-07-23T09:46:20;9.10;;;3.80;;
52718;SDS011;38616;42.140;24.760;2022-07-23T09:48:50;10.38;;;4.15;;
52718;SDS011;38616;42.140;24.760;2022-07-23T09:51:21;8.30;;;3.75;;
52718;SDS011;38616;42.140;24.760;2022-07-23T09:54:02;11.38;;;3.88;;
52718;SDS011;38616;42.140;24.760;2022-07-23T09:56:28;7.82;;;3.55;;
52718;SDS011;38616;42.140;24.760;2022-07-23T09:58:54;10.57;;;3.92;;
52718;SDS011;38616;42.140;24.760;2022-07-23T10:01:34;9.38;;;4.00;;
52718;SDS011;38616;42.140;24.760;2022-07-23T10:03:59;6.63;;;4.13;;
52718;SDS011;38616;42.140;24.760;2022-07-23T10:06:26;9.40;;;3.70;;
52718;SDS011;38616;42.140;24.760;2022-07-23T10:08:54;4.10;;;3.22;;
52718;SDS011;38616;42.140;24.760;2022-07-23T10:11:23;7.63;;;3.80;;
52718;SDS011;38616;42.140;24.760;2022-07-23T10:13:49;8.93;;;4.35;;
52718;SDS011;38616;42.140;24.760;2022-07-23T10:16:15;8.82;;;3.45;;
52718;SDS011;38616;42.140;24.760;2022-07-23T10:18:41;6.15;;;3.65;;
52718;SDS011;38616;42.140;24.760;2022-07-23T10:21:07;12.82;;;3.85;;
52718;SDS011;38616;42.140;24.760;2022-07-23T10:23:35;8.00;;;4.10;;
52718;SDS011;38616;42.140;24.760;2022-07-23T10:26:20;12.20;;;3.17;;
52718;SDS011;38616;42.140;24.760;2022-07-23T10:31:31;7.68;;;3.70;;
52718;SDS011;38616;42.140;24.760;2022-07-23T10:34:20;9.02;;;3.95;;
52718;SDS011;38616;42.140;24.760;2022-07-23T10:36:52;9.20;;;3.90;;
52718;SDS011;38616;42.140;24.760;2022-07-23T10:39:24;6.68;;;3.85;;
52718;SDS011;38616;42.140;24.760;2022-07-23T10:41:50;8.52;;;4.65;;
52718;SDS011;38616;42.140;24.760;2022-07-23T10:44:17;8.57;;;4.32;;
52718;SDS011;38616;42.140;24.760;2022-07-23T10:47:01;12.70;;;3.90;;
52718;SDS011;38616;42.140;24.760;2022-07-23T10:49:43;8.50;;;5.00;;
52718;SDS011;38616;42.140;24.760;2022-07-23T10:57:47;12.40;;;4.87;;
52718;SDS011;38616;42.140;24.760;2022-07-23T11:00:14;12.20;;;3.83;;
52718;SDS011;38616;42.140;24.760;2022-07-23T11:02:53;8.15;;;5.53;;
52718;SDS011;38616;42.140;24.760;2022-07-23T11:05:40;13.75;;;4.63;;
52718;SDS011;38616;42.140;24.760;2022-07-23T11:10:40;6.53;;;3.42;;
52718;SDS011;38616;42.140;24.760;2022-07-23T11:31:53;11.95;;;4.55;;
52718;SDS011;38616;42.140;24.760;2022-07-23T11:37:07;12.35;;;3.50;;
52718;SDS011;38616;42.140;24.760;2022-07-23T11:39:35;6.90;;;3.58;;
52718;SDS011;38616;42.140;24.760;2022-07-23T11:42:01;9.45;;;3.58;;
52718;SDS011;38616;42.140;24.760;2022-07-23T11:44:38;12.65;;;4.10;;
52718;SDS011;38616;42.140;24.760;2022-07-23T11:49:29;11.57;;;5.38;;
52718;SDS011;38616;42.140;24.760;2022-07-23T11:52:02;11.40;;;5.00;;
52718;SDS011;38616;42.140;24.760;2022-07-23T11:54:32;10.88;;;4.72;;
52718;SDS011;38616;42.140;24.760;2022-07-23T11:56:59;12.27;;;3.95;;
52718;SDS011;38616;42.140;24.760;2022-07-23T12:01:55;10.65;;;3.90;;
52718;SDS011;38616;42.140;24.760;2022-07-23T12:04:23;9.65;;;3.97;;
52718;SDS011;38616;42.140;24.760;2022-07-23T12:06:48;11.52;;;3.80;;
52718;SDS011;38616;42.140;24.760;2022-07-23T12:09:13;5.85;;;3.50;;
52718;SDS011;38616;42.140;24.760;2022-07-23T12:11:39;14.23;;;4.30;;
52718;SDS011;38616;42.140;24.760;2022-07-23T12:14:20;9.88;;;3.97;;
52718;SDS011;38616;42.140;24.760;2022-07-23T12:16:46;11.77;;;3.97;;
52718;SDS011;38616;42.140;24.760;2022-07-23T12:19:11;11.83;;;4.17;;
52718;SDS011;38616;42.140;24.760;2022-07-23T12:21:38;11.38;;;3.83;;
52718;SDS011;38616;42.140;24.760;2022-07-23T12:24:07;10.20;;;4.38;;
52718;SDS011;38616;42.140;24.760;2022-07-23T12:26:32;12.02;;;3.95;;
52718;SDS011;38616;42.140;24.760;2022-07-23T12:28:58;11.55;;;3.70;;
52718;SDS011;38616;42.140;24.760;2022-07-23T12:31:26;13.57;;;3.70;;
52718;SDS011;38616;42.140;24.760;2022-07-23T12:33:52;6.50;;;3.75;;
52718;SDS011;38616;42.140;24.760;2022-07-23T12:36:21;12.20;;;4.65;;
52718;SDS011;38616;42.140;24.760;2022-07-23T12:39:02;13.10;;;5.47;;
52718;SDS011;38616;42.140;24.760;2022-07-23T12:41:27;15.57;;;4.60;;
52718;SDS011;38616;42.140;24.760;2022-07-23T12:44:16;9.10;;;3.15;;
52718;SDS011;38616;42.140;24.760;2022-07-23T12:46:41;10.77;;;3.55;;
52718;SDS011;38616;42.140;24.760;2022-07-23T12:49:06;8.10;;;3.53;;
52718;SDS011;38616;42.140;24.760;2022-07-23T12:51:32;10.67;;;4.50;;
52718;SDS011;38616;42.140;24.760;2022-07-23T12:54:05;16.25;;;4.93;;
52718;SDS011;38616;42.140;24.760;2022-07-23T12:56:36;13.50;;;4.63;;
52718;SDS011;38616;42.140;24.760;2022-07-23T13:01:32;11.25;;;5.18;;
52718;SDS011;38616;42.140;24.760;2022-07-23T13:04:10;13.75;;;4.25;;
52718;SDS011;38616;42.140;24.760;2022-07-23T13:06:38;13.00;;;3.85;;
52718;SDS011;38616;42.140;24.760;2022-07-23T13:09:05;13.18;;;4.35;;
52718;SDS011;38616;42.140;24.760;2022-07-23T13:11:32;14.30;;;4.22;;
52718;SDS011;38616;42.140;24.760;2022-07-23T13:13:58;11.43;;;4.00;;
52718;SDS011;38616;42.140;24.760;2022-07-23T13:16:26;12.57;;;3.67;;
52718;SDS011;38616;42.140;24.760;2022-07-23T13:18:52;14.57;;;4.03;;
52718;SDS011;38616;42.140;24.760;2022-07-23T13:21:17;17.00;;;4.87;;
52718;SDS011;38616;42.140;24.760;2022-07-23T13:23:43;16.20;;;4.03;;
52718;SDS011;38616;42.140;24.760;2022-07-23T13:26:08;10.73;;;4.43;;
52718;SDS011;38616;42.140;24.760;2022-07-23T13:28:34;10.73;;;4.53;;
52718;SDS011;38616;42.140;24.760;2022-07-23T13:30:59;13.73;;;3.97;;
52718;SDS011;38616;42.140;24.760;2022-07-23T13:33:25;9.25;;;4.15;;
52718;SDS011;38616;42.140;24.760;2022-07-23T13:35:51;11.30;;;4.20;;
52718;SDS011;38616;42.140;24.760;2022-07-23T13:38:18;14.18;;;3.83;;
52718;SDS011;38616;42.140;24.760;2022-07-23T13:40:45;19.02;;;3.90;;
52718;SDS011;38616;42.140;24.760;2022-07-23T13:43:13;14.80;;;4.22;;
52718;SDS011;38616;42.140;24.760;2022-07-23T13:45:41;9.07;;;4.35;;
52718;SDS011;38616;42.140;24.760;2022-07-23T13:48:08;11.52;;;4.07;;
52718;SDS011;38616;42.140;24.760;2022-07-23T13:50:34;16.80;;;4.88;;
52718;SDS011;38616;42.140;24.760;2022-07-23T13:53:04;10.68;;;3.47;;
52718;SDS011;38616;42.140;24.760;2022-07-23T13:55:32;17.42;;;4.75;;
52718;SDS011;38616;42.140;24.760;2022-07-23T13:57:58;12.50;;;3.65;;
52718;SDS011;38616;42.140;24.760;2022-07-23T14:00:24;11.27;;;4.37;;
52718;SDS011;38616;42.140;24.760;2022-07-23T14:02:50;14.68;;;4.55;;
52718;SDS011;38616;42.140;24.760;2022-07-23T14:05:16;9.37;;;3.50;;
52718;SDS011;38616;42.140;24.760;2022-07-23T14:07:41;10.97;;;3.80;;
52718;SDS011;38616;42.140;24.760;2022-07-23T14:10:09;9.48;;;4.32;;
52718;SDS011;38616;42.140;24.760;2022-07-23T14:12:36;12.48;;;4.45;;
52718;SDS011;38616;42.140;24.760;2022-07-23T14:15:02;17.02;;;4.25;;
52718;SDS011;38616;42.140;24.760;2022-07-23T14:17:29;9.23;;;3.92;;
52718;SDS011;38616;42.140;24.760;2022-07-23T14:22:22;8.43;;;3.93;;
52718;SDS011;38616;42.140;24.760;2022-07-23T14:24:47;8.87;;;3.93;;
52718;SDS011;38616;42.140;24.760;2022-07-23T14:27:13;9.33;;;3.93;;
52718;SDS011;38616;42.140;24.760;2022-07-23T14:29:38;14.23;;;3.90;;
52718;SDS011;38616;42.140;24.760;2022-07-23T14:32:04;19.17;;;4.53;;
52718;SDS011;38616;42.140;24.760;2022-07-23T14:34:30;16.20;;;4.93;;
52718;SDS011;38616;42.140;24.760;2022-07-23T14:36:55;8.07;;;4.07;;
52718;SDS011;38616;42.140;24.760;2022-07-23T14:39:21;10.70;;;4.00;;
52718;SDS011;38616;42.140;24.760;2022-07-23T14:41:46;17.37;;;4.77;;
52718;SDS011;38616;42.140;24.760;2022-07-23T14:44:12;11.20;;;3.80;;
52718;SDS011;38616;42.140;24.760;2022-07-23T14:46:37;11.37;;;4.27;;
52718;SDS011;38616;42.140;24.760;2022-07-23T14:49:03;12.57;;;4.53;;
52718;SDS011;38616;42.140;24.760;2022-07-23T14:51:29;11.90;;;4.53;;
52718;SDS011;38616;42.140;24.760;2022-07-23T14:53:54;10.73;;;4.60;;
52718;SDS011;38616;42.140;24.760;2022-07-23T14:56:20;8.87;;;4.17;;
52718;SDS011;38616;42.140;24.760;2022-07-23T14:58:45;9.93;;;4.30;;
52718;SDS011;38616;42.140;24.760;2022-07-23T15:01:11;10.67;;;3.90;;
52718;SDS011;38616;42.140;24.760;2022-07-23T15:03:36;10.90;;;4.00;;
52718;SDS011;38616;42.140;24.760;2022-07-23T15:06:02;10.13;;;4.30;;
52718;SDS011;38616;42.140;24.760;2022-07-23T15:08:28;15.17;;;4.83;;